sensor_id;sensor_type;location;lat;lon;timestamp;pressure;altitude;pressure_sealevel;temperature;humidity
21100;BME280;10708;50.824;4.408;2023-01-30T00:01:13;101136.47;;;4.83;100.00
21100;BME280;10708;50.824;4.408;2023-01-30T00:06:16;101130.38;;;4.86;100.00
21100;BME280;10708;50.824;4.408;2023-01-30T00:11:20;101139.09;;;4.87;100.00
21100;BME280;10708;50.824;4.408;2023-01-30T00:16:22;101109.50;;;4.88;100.00
21100;BME280;10708;50.824;4.408;2023-01-30T00:21:24;101108.63;;;4.89;100.00
21100;BME280;10708;50.824;4.408;2023-01-30T00:26:28;101100.78;;;4.90;100.00
21100;BME280;10708;50.824;4.408;2023-01-30T00:31:30;101100.81;;;4.89;100.00
21100;BME280;10708;50.824;4.408;2023-01-30T00:36:32;101059.88;;;4.91;100.00
21100;BME280;10708;50.824;4.408;2023-01-30T00:41:36;101073.84;;;4.88;100.00
21100;BME280;10708;50.824;4.408;2023-01-30T00:46:56;101077.28;;;4.95;100.00
21100;BME280;10708;50.824;4.408;2023-01-30T00:52:08;101079.84;;;5.01;100.00
21100;BME280;10708;50.824;4.408;2023-01-30T00:57:12;101072.00;;;5.02;100.00
21100;BME280;10708;50.824;4.408;2023-01-30T01:02:14;101058.94;;;5.05;100.00
21100;BME280;10708;50.824;4.408;2023-01-30T01:07:16;101085.88;;;5.10;100.00
21100;BME280;10708;50.824;4.408;2023-01-30T01:12:20;101085.88;;;5.13;100.00
21100;BME280;10708;50.824;4.408;2023-01-30T01:17:22;101084.13;;;5.17;100.00
21100;BME280;10708;50.824;4.408;2023-01-30T01:22:24;101091.03;;;5.21;100.00
21100;BME280;10708;50.824;4.408;2023-01-30T01:27:29;101072.78;;;5.19;100.00
21100;BME280;10708;50.824;4.408;2023-01-30T01:32:31;101074.50;;;5.28;100.00
21100;BME280;10708;50.824;4.408;2023-01-30T01:37:33;101062.31;;;5.27;100.00
21100;BME280;10708;50.824;4.408;2023-01-30T01:42:37;101064.88;;;5.30;100.00
21100;BME280;10708;50.824;4.408;2023-01-30T01:47:42;101056.16;;;5.36;100.00
21100;BME280;10708;50.824;4.408;2023-01-30T01:52:47;101049.19;;;5.35;100.00
21100;BME280;10708;50.824;4.408;2023-01-30T01:57:53;101056.97;;;5.41;100.00
21100;BME280;10708;50.824;4.408;2023-01-30T02:02:59;101062.19;;;5.41;100.00
21100;BME280;10708;50.824;4.408;2023-01-30T02:08:05;101048.25;;;5.45;100.00
21100;BME280;10708;50.824;4.408;2023-01-30T02:13:10;101043.00;;;5.48;100.00
21100;BME280;10708;50.824;4.408;2023-01-30T02:18:13;101034.31;;;5.46;100.00
21100;BME280;10708;50.824;4.408;2023-01-30T02:23:44;101048.19;;;5.52;100.00
21100;BME280;10708;50.824;4.408;2023-01-30T02:29:05;101056.03;;;5.54;100.00
21100;BME280;10708;50.824;4.408;2023-01-30T02:34:26;101027.25;;;5.59;100.00
21100;BME280;10708;50.824;4.408;2023-01-30T02:39:38;100995.94;;;5.54;100.00
21100;BME280;10708;50.824;4.408;2023-01-30T02:44:51;100982.84;;;5.57;100.00
21100;BME280;10708;50.824;4.408;2023-01-30T02:50:01;100964.50;;;5.62;100.00
21100;BME280;10708;50.824;4.408;2023-01-30T02:55:09;100966.25;;;5.61;100.00
21100;BME280;10708;50.824;4.408;2023-01-30T03:00:21;100939.22;;;5.65;100.00
21100;BME280;10708;50.824;4.408;2023-01-30T03:05:38;100965.34;;;5.65;100.00
21100;BME280;10708;50.824;4.408;2023-01-30T03:10:51;100972.31;;;5.68;100.00
21100;BME280;10708;50.824;4.408;2023-01-30T03:16:01;100976.56;;;5.76;100.00
21100;BME280;10708;50.824;4.408;2023-01-30T03:21:07;100963.53;;;5.72;100.00
21100;BME280;10708;50.824;4.408;2023-01-30T03:26:13;100953.84;;;5.81;100.00
21100;BME280;10708;50.824;4.408;2023-01-30T03:31:18;100959.03;;;5.87;100.00
21100;BME280;10708;50.824;4.408;2023-01-30T03:36:22;100951.13;;;5.95;100.00
21100;BME280;10708;50.824;4.408;2023-01-30T03:41:24;100957.22;;;5.99;100.00
21100;BME280;10708;50.824;4.408;2023-01-30T03:46:27;100967.63;;;6.02;100.00
21100;BME280;10708;50.824;4.408;2023-01-30T03:51:30;100964.09;;;6.07;100.00
21100;BME280;10708;50.824;4.408;2023-01-30T03:56:33;100946.59;;;6.11;100.00
21100;BME280;10708;50.824;4.408;2023-01-30T04:01:35;100939.56;;;6.17;100.00
21100;BME280;10708;50.824;4.408;2023-01-30T04:06:39;100948.22;;;6.21;100.00
21100;BME280;10708;50.824;4.408;2023-01-30T04:11:41;100951.69;;;6.23;100.00
21100;BME280;10708;50.824;4.408;2023-01-30T04:16:43;100951.88;;;6.08;100.00
21100;BME280;10708;50.824;4.408;2023-01-30T04:21:48;100948.28;;;6.16;100.00
21100;BME280;10708;50.824;4.408;2023-01-30T04:26:50;100947.44;;;6.16;100.00
21100;BME280;10708;50.824;4.408;2023-01-30T04:31:52;100950.13;;;6.08;100.00
21100;BME280;10708;50.824;4.408;2023-01-30T04:36:56;100937.00;;;6.13;100.00
21100;BME280;10708;50.824;4.408;2023-01-30T04:41:58;100946.56;;;6.14;100.00
21100;BME280;10708;50.824;4.408;2023-01-30T04:47:00;100947.53;;;6.08;100.00
21100;BME280;10708;50.824;4.408;2023-01-30T04:52:04;100934.34;;;6.14;100.00
21100;BME280;10708;50.824;4.408;2023-01-30T04:57:07;100915.16;;;6.15;100.00
21100;BME280;10708;50.824;4.408;2023-01-30T05:02:09;100906.47;;;6.15;100.00
21100;BME280;10708;50.824;4.408;2023-01-30T05:07:13;100925.66;;;6.14;100.00
21100;BME280;10708;50.824;4.408;2023-01-30T05:12:15;100929.97;;;6.16;100.00
21100;BME280;10708;50.824;4.408;2023-01-30T05:17:17;100943.81;;;6.27;100.00
21100;BME280;10708;50.824;4.408;2023-01-30T05:22:21;100935.03;;;6.30;100.00
21100;BME280;10708;50.824;4.408;2023-01-30T05:27:23;100927.13;;;6.36;100.00
21100;BME280;10708;50.824;4.408;2023-01-30T05:32:25;100927.91;;;6.41;100.00
21100;BME280;10708;50.824;4.408;2023-01-30T05:37:31;100941.09;;;6.35;100.00
21100;BME280;10708;50.824;4.408;2023-01-30T05:42:34;100940.09;;;6.45;100.00
21100;BME280;10708;50.824;4.408;2023-01-30T05:47:36;100941.75;;;6.51;100.00
21100;BME280;10708;50.824;4.408;2023-01-30T05:52:40;100942.53;;;6.57;100.00
21100;BME280;10708;50.824;4.408;2023-01-30T05:57:42;100934.69;;;6.57;100.00
21100;BME280;10708;50.824;4.408;2023-01-30T06:02:44;100933.72;;;6.63;100.00
21100;BME280;10708;50.824;4.408;2023-01-30T06:07:48;100952.06;;;6.63;100.00
21100;BME280;10708;50.824;4.408;2023-01-30T06:12:50;100962.63;;;6.57;100.00
21100;BME280;10708;50.824;4.408;2023-01-30T06:17:52;100952.06;;;6.63;100.00
21100;BME280;10708;50.824;4.408;2023-01-30T06:22:56;100971.19;;;6.68;100.00
21100;BME280;10708;50.824;4.408;2023-01-30T06:27:58;100975.59;;;6.64;100.00
21100;BME280;10708;50.824;4.408;2023-01-30T06:33:01;100988.56;;;6.72;100.00
21100;BME280;10708;50.824;4.408;2023-01-30T06:38:05;100999.91;;;6.71;100.00
21100;BME280;10708;50.824;4.408;2023-01-30T06:43:09;100986.81;;;6.73;100.00
21100;BME280;10708;50.824;4.408;2023-01-30T06:48:11;100992.91;;;6.75;100.00
21100;BME280;10708;50.824;4.408;2023-01-30T06:53:15;101003.31;;;6.79;100.00
21100;BME280;10708;50.824;4.408;2023-01-30T06:58:17;101004.22;;;6.77;100.00
21100;BME280;10708;50.824;4.408;2023-01-30T07:03:20;101006.00;;;6.75;100.00
21100;BME280;10708;50.824;4.408;2023-01-30T07:08:24;101003.38;;;6.76;100.00
21100;BME280;10708;50.824;4.408;2023-01-30T07:13:26;101010.25;;;6.82;100.00
21100;BME280;10708;50.824;4.408;2023-01-30T07:18:28;101023.22;;;6.91;100.00
21100;BME280;10708;50.824;4.408;2023-01-30T07:23:32;101007.50;;;6.91;100.00
21100;BME280;10708;50.824;4.408;2023-01-30T07:28:36;100986.53;;;6.94;100.00
21100;BME280;10708;50.824;4.408;2023-01-30T07:33:38;100992.66;;;6.91;100.00
21100;BME280;10708;50.824;4.408;2023-01-30T07:38:42;101003.00;;;7.00;100.00
21100;BME280;10708;50.824;4.408;2023-01-30T07:43:44;101005.63;;;7.02;100.00
21100;BME280;10708;50.824;4.408;2023-01-30T07:48:47;101022.19;;;7.04;100.00
21100;BME280;10708;50.824;4.408;2023-01-30T07:53:50;101039.66;;;7.03;100.00
21100;BME280;10708;50.824;4.408;2023-01-30T07:58:54;101042.38;;;6.94;100.00
21100;BME280;10708;50.824;4.408;2023-01-30T08:03:56;101041.28;;;7.09;100.00
21100;BME280;10708;50.824;4.408;2023-01-30T08:09:00;101041.47;;;6.98;100.00
21100;BME280;10708;50.824;4.408;2023-01-30T08:14:02;101053.50;;;7.12;100.00
21100;BME280;10708;50.824;4.408;2023-01-30T08:19:05;101043.72;;;7.23;100.00
21100;BME280;10708;50.824;4.408;2023-01-30T08:24:08;101045.34;;;7.33;100.00
21100;BME280;10708;50.824;4.408;2023-01-30T08:29:11;101047.97;;;7.31;100.00
21100;BME280;10708;50.824;4.408;2023-01-30T08:34:13;101083.09;;;7.18;100.00
21100;BME280;10708;50.824;4.408;2023-01-30T08:39:17;101075.28;;;7.17;100.00
21100;BME280;10708;50.824;4.408;2023-01-30T08:44:19;101082.88;;;7.33;100.00
21100;BME280;10708;50.824;4.408;2023-01-30T08:49:22;101070.50;;;7.43;100.00
21100;BME280;10708;50.824;4.408;2023-01-30T08:54:26;101083.50;;;7.51;100.00
21100;BME280;10708;50.824;4.408;2023-01-30T08:59:28;101092.63;;;7.82;100.00
21100;BME280;10708;50.824;4.408;2023-01-30T09:04:31;101094.72;;;7.59;100.00
21100;BME280;10708;50.824;4.408;2023-01-30T09:09:34;101117.34;;;7.67;100.00
21100;BME280;10708;50.824;4.408;2023-01-30T09:14:37;101108.34;;;7.82;100.00
21100;BME280;10708;50.824;4.408;2023-01-30T09:19:39;101107.63;;;7.74;100.00
21100;BME280;10708;50.824;4.408;2023-01-30T09:24:43;101105.28;;;7.56;100.00
21100;BME280;10708;50.824;4.408;2023-01-30T09:29:46;101109.34;;;7.76;100.00
21100;BME280;10708;50.824;4.408;2023-01-30T09:34:48;101119.97;;;7.67;100.00
21100;BME280;10708;50.824;4.408;2023-01-30T09:39:52;101118.53;;;7.47;100.00
21100;BME280;10708;50.824;4.408;2023-01-30T09:45:10;101126.25;;;7.54;100.00
21100;BME280;10708;50.824;4.408;2023-01-30T09:50:29;101127.41;;;7.35;100.00
21100;BME280;10708;50.824;4.408;2023-01-30T09:55:39;101155.38;;;7.34;100.00
21100;BME280;10708;50.824;4.408;2023-01-30T10:00:42;101154.47;;;7.37;100.00
21100;BME280;10708;50.824;4.408;2023-01-30T10:05:49;101164.06;;;7.38;100.00
21100;BME280;10708;50.824;4.408;2023-01-30T10:10:57;101171.81;;;7.46;100.00
21100;BME280;10708;50.824;4.408;2023-01-30T10:16:08;101159.50;;;7.51;100.00
21100;BME280;10708;50.824;4.408;2023-01-30T10:21:22;101162.03;;;7.58;100.00
21100;BME280;10708;50.824;4.408;2023-01-30T10:26:31;101168.09;;;7.62;100.00
21100;BME280;10708;50.824;4.408;2023-01-30T10:31:39;101168.16;;;7.57;100.00
21100;BME280;10708;50.824;4.408;2023-01-30T10:36:48;101182.91;;;7.66;100.00
21100;BME280;10708;50.824;4.408;2023-01-30T10:42:00;101193.50;;;7.58;100.00
21100;BME280;10708;50.824;4.408;2023-01-30T10:47:32;101183.03;;;7.55;100.00
21100;BME280;10708;50.824;4.408;2023-01-30T10:52:46;101182.97;;;7.60;100.00
21100;BME280;10708;50.824;4.408;2023-01-30T10:58:00;101191.56;;;7.71;100.00
21100;BME280;10708;50.824;4.408;2023-01-30T11:03:19;101193.16;;;7.81;100.00
21100;BME280;10708;50.824;4.408;2023-01-30T11:08:24;101200.81;;;7.96;100.00
21100;BME280;10708;50.824;4.408;2023-01-30T11:13:29;101179.75;;;8.01;100.00
21100;BME280;10708;50.824;4.408;2023-01-30T11:18:32;101188.25;;;8.17;100.00
21100;BME280;10708;50.824;4.408;2023-01-30T11:23:45;101188.44;;;8.06;100.00
21100;BME280;10708;50.824;4.408;2023-01-30T11:28:49;101186.66;;;8.06;100.00
21100;BME280;10708;50.824;4.408;2023-01-30T11:33:59;101178.72;;;8.09;100.00
21100;BME280;10708;50.824;4.408;2023-01-30T11:39:18;101194.41;;;8.14;100.00
21100;BME280;10708;50.824;4.408;2023-01-30T11:44:26;101195.25;;;8.16;100.00
21100;BME280;10708;50.824;4.408;2023-01-30T11:49:34;101186.53;;;8.15;100.00
21100;BME280;10708;50.824;4.408;2023-01-30T11:54:39;101176.09;;;8.09;100.00
21100;BME280;10708;50.824;4.408;2023-01-30T11:59:46;101175.06;;;8.20;100.00
21100;BME280;10708;50.824;4.408;2023-01-30T12:04:54;101184.84;;;8.10;100.00
21100;BME280;10708;50.824;4.408;2023-01-30T12:09:57;101169.09;;;8.10;100.00
21100;BME280;10708;50.824;4.408;2023-01-30T12:15:05;101179.53;;;8.16;100.00
21100;BME280;10708;50.824;4.408;2023-01-30T12:20:18;101179.56;;;8.13;100.00
21100;BME280;10708;50.824;4.408;2023-01-30T12:25:26;101176.03;;;8.15;100.00
21100;BME280;10708;50.824;4.408;2023-01-30T12:30:35;101181.91;;;8.30;100.00
21100;BME280;10708;50.824;4.408;2023-01-30T12:35:46;101183.97;;;8.09;100.00
21100;BME280;10708;50.824;4.408;2023-01-30T12:40:59;101172.63;;;8.09;100.00
21100;BME280;10708;50.824;4.408;2023-01-30T12:46:16;101185.00;;;7.99;100.00
21100;BME280;10708;50.824;4.408;2023-01-30T12:57:10;101182.34;;;8.02;100.00
21100;BME280;10708;50.824;4.408;2023-01-30T13:02:39;101195.63;;;7.90;100.00
21100;BME280;10708;50.824;4.408;2023-01-30T13:07:51;101183.34;;;7.95;100.00
21100;BME280;10708;50.824;4.408;2023-01-30T13:13:07;101183.47;;;7.86;100.00
21100;BME280;10708;50.824;4.408;2023-01-30T13:18:17;101197.47;;;7.87;100.00
21100;BME280;10708;50.824;4.408;2023-01-30T13:23:28;101193.00;;;7.92;100.00
21100;BME280;10708;50.824;4.408;2023-01-30T13:28:37;101190.97;;;8.10;100.00
21100;BME280;10708;50.824;4.408;2023-01-30T13:33:44;101194.53;;;8.06;100.00
21100;BME280;10708;50.824;4.408;2023-01-30T13:38:56;101205.88;;;8.08;100.00
21100;BME280;10708;50.824;4.408;2023-01-30T13:44:03;101197.94;;;8.11;100.00
21100;BME280;10708;50.824;4.408;2023-01-30T13:49:16;101208.28;;;8.21;100.00
21100;BME280;10708;50.824;4.408;2023-01-30T13:54:36;101203.91;;;8.21;100.00
21100;BME280;10708;50.824;4.408;2023-01-30T13:59:56;101211.84;;;8.18;100.00
21100;BME280;10708;50.824;4.408;2023-01-30T14:05:04;101231.16;;;8.12;100.00
21100;BME280;10708;50.824;4.408;2023-01-30T14:10:15;101241.47;;;8.25;100.00
21100;BME280;10708;50.824;4.408;2023-01-30T14:15:23;101238.97;;;8.17;100.00
21100;BME280;10708;50.824;4.408;2023-01-30T14:20:28;101253.13;;;8.07;100.00
21100;BME280;10708;50.824;4.408;2023-01-30T14:25:43;101264.50;;;8.07;100.00
21100;BME280;10708;50.824;4.408;2023-01-30T14:30:47;101261.88;;;8.07;100.00
21100;BME280;10708;50.824;4.408;2023-01-30T14:36:35;101269.63;;;8.13;100.00
21100;BME280;10708;50.824;4.408;2023-01-30T14:41:39;101281.97;;;8.07;100.00
21100;BME280;10708;50.824;4.408;2023-01-30T14:46:43;101290.78;;;8.03;100.00
21100;BME280;10708;50.824;4.408;2023-01-30T14:51:48;101297.66;;;8.10;100.00
21100;BME280;10708;50.824;4.408;2023-01-30T14:56:54;101303.00;;;8.04;100.00
21100;BME280;10708;50.824;4.408;2023-01-30T15:02:02;101303.84;;;8.06;100.00
21100;BME280;10708;50.824;4.408;2023-01-30T15:07:08;101314.34;;;8.07;100.00
21100;BME280;10708;50.824;4.408;2023-01-30T15:12:27;101332.69;;;8.07;100.00
21100;BME280;10708;50.824;4.408;2023-01-30T15:17:40;101338.06;;;7.98;100.00
21100;BME280;10708;50.824;4.408;2023-01-30T15:23:03;101353.81;;;7.98;100.00
21100;BME280;10708;50.824;4.408;2023-01-30T15:28:19;101352.88;;;7.99;100.00
21100;BME280;10708;50.824;4.408;2023-01-30T15:33:27;101366.84;;;8.01;100.00
21100;BME280;10708;50.824;4.408;2023-01-30T15:38:33;101380.97;;;7.93;100.00
21100;BME280;10708;50.824;4.408;2023-01-30T15:43:51;101389.81;;;7.84;100.00
21100;BME280;10708;50.824;4.408;2023-01-30T15:49:24;101391.59;;;7.79;100.00
21100;BME280;10708;50.824;4.408;2023-01-30T15:54:33;101393.41;;;7.75;100.00
21100;BME280;10708;50.824;4.408;2023-01-30T15:59:37;101405.59;;;7.79;100.00
21100;BME280;10708;50.824;4.408;2023-01-30T16:04:40;101412.66;;;7.73;100.00
21100;BME280;10708;50.824;4.408;2023-01-30T16:09:53;101427.47;;;7.77;100.00
21100;BME280;10708;50.824;4.408;2023-01-30T16:14:56;101426.66;;;7.70;100.00
21100;BME280;10708;50.824;4.408;2023-01-30T16:19:59;101439.84;;;7.64;100.00
21100;BME280;10708;50.824;4.408;2023-01-30T16:25:15;101443.34;;;7.63;100.00
21100;BME280;10708;50.824;4.408;2023-01-30T16:30:25;101463.44;;;7.64;100.00
21100;BME280;10708;50.824;4.408;2023-01-30T16:35:30;101459.06;;;7.65;100.00
21100;BME280;10708;50.824;4.408;2023-01-30T16:40:44;101473.84;;;7.73;100.00
21100;BME280;10708;50.824;4.408;2023-01-30T16:51:22;101481.69;;;7.75;100.00
21100;BME280;10708;50.824;4.408;2023-01-30T16:56:27;101494.84;;;7.69;100.00
21100;BME280;10708;50.824;4.408;2023-01-30T17:01:38;101500.16;;;7.64;100.00
21100;BME280;10708;50.824;4.408;2023-01-30T17:06:42;101509.78;;;7.62;100.00
21100;BME280;10708;50.824;4.408;2023-01-30T17:11:49;101507.13;;;7.64;100.00
21100;BME280;10708;50.824;4.408;2023-01-30T17:17:11;101525.50;;;7.61;100.00
21100;BME280;10708;50.824;4.408;2023-01-30T17:22:16;101536.94;;;7.55;100.00
21100;BME280;10708;50.824;4.408;2023-01-30T17:27:26;101545.63;;;7.59;100.00
21100;BME280;10708;50.824;4.408;2023-01-30T17:32:29;101546.56;;;7.53;100.00
21100;BME280;10708;50.824;4.408;2023-01-30T17:37:32;101550.06;;;7.49;100.00
21100;BME280;10708;50.824;4.408;2023-01-30T17:42:35;101555.28;;;7.52;100.00
21100;BME280;10708;50.824;4.408;2023-01-30T17:47:38;101554.44;;;7.50;100.00
21100;BME280;10708;50.824;4.408;2023-01-30T17:52:40;101570.22;;;7.41;100.00
21100;BME280;10708;50.824;4.408;2023-01-30T17:57:46;101572.81;;;7.47;100.00
21100;BME280;10708;50.824;4.408;2023-01-30T18:02:49;101588.56;;;7.43;100.00
21100;BME280;10708;50.824;4.408;2023-01-30T18:07:52;101579.81;;;7.47;100.00
21100;BME280;10708;50.824;4.408;2023-01-30T18:12:56;101593.81;;;7.39;100.00
21100;BME280;10708;50.824;4.408;2023-01-30T18:17:58;101599.97;;;7.32;100.00
21100;BME280;10708;50.824;4.408;2023-01-30T18:23:01;101600.81;;;7.39;100.00
21100;BME280;10708;50.824;4.408;2023-01-30T18:28:05;101599.13;;;7.32;100.00
21100;BME280;10708;50.824;4.408;2023-01-30T18:33:11;101606.16;;;7.27;100.00
21100;BME280;10708;50.824;4.408;2023-01-30T18:38:13;101618.38;;;7.28;100.00
21100;BME280;10708;50.824;4.408;2023-01-30T18:43:17;101627.13;;;7.21;100.00
21100;BME280;10708;50.824;4.408;2023-01-30T18:48:19;101607.94;;;7.13;100.00
21100;BME280;10708;50.824;4.408;2023-01-30T18:53:22;101620.19;;;7.18;100.00
21100;BME280;10708;50.824;4.408;2023-01-30T18:58:28;101634.16;;;7.11;100.00
21100;BME280;10708;50.824;4.408;2023-01-30T19:03:31;101647.22;;;7.22;100.00
21100;BME280;10708;50.824;4.408;2023-01-30T19:08:33;101642.00;;;7.16;100.00
21100;BME280;10708;50.824;4.408;2023-01-30T19:13:37;101662.97;;;7.13;100.00
21100;BME280;10708;50.824;4.408;2023-01-30T19:18:39;101670.88;;;7.08;100.00
21100;BME280;10708;50.824;4.408;2023-01-30T19:23:42;101678.72;;;7.05;100.00
21100;BME280;10708;50.824;4.408;2023-01-30T19:28:46;101683.09;;;7.01;100.00
21100;BME280;10708;50.824;4.408;2023-01-30T19:33:53;101689.16;;;7.11;100.00
21100;BME280;10708;50.824;4.408;2023-01-30T19:38:56;101681.34;;;7.08;100.00
21100;BME280;10708;50.824;4.408;2023-01-30T19:44:01;101693.56;;;7.01;100.00
21100;BME280;10708;50.824;4.408;2023-01-30T19:49:04;101692.69;;;7.04;100.00
21100;BME280;10708;50.824;4.408;2023-01-30T19:54:09;101694.50;;;6.82;100.00
21100;BME280;10708;50.824;4.408;2023-01-30T19:59:13;101697.13;;;6.87;100.00
21100;BME280;10708;50.824;4.408;2023-01-30T20:04:16;101704.13;;;6.71;100.00
21100;BME280;10708;50.824;4.408;2023-01-30T20:09:18;101691.94;;;6.58;100.00
21100;BME280;10708;50.824;4.408;2023-01-30T20:14:22;101701.56;;;6.48;100.00
21100;BME280;10708;50.824;4.408;2023-01-30T20:19:25;101716.38;;;6.52;100.00
21100;BME280;10708;50.824;4.408;2023-01-30T20:24:28;101713.78;;;6.37;100.00
21100;BME280;10708;50.824;4.408;2023-01-30T20:29:32;101709.41;;;6.38;100.00
21100;BME280;10708;50.824;4.408;2023-01-30T20:34:34;101723.34;;;6.29;100.00
21100;BME280;10708;50.824;4.408;2023-01-30T20:39:39;101728.59;;;6.17;100.00
21100;BME280;10708;50.824;4.408;2023-01-30T20:44:43;101705.91;;;6.19;100.00
21100;BME280;10708;50.824;4.408;2023-01-30T20:49:45;101710.28;;;6.17;100.00
21100;BME280;10708;50.824;4.408;2023-01-30T20:54:48;101718.13;;;6.24;100.00
21100;BME280;10708;50.824;4.408;2023-01-30T20:59:55;101720.75;;;6.17;100.00
21100;BME280;10708;50.824;4.408;2023-01-30T21:05:01;101711.13;;;6.20;100.00
21100;BME280;10708;50.824;4.408;2023-01-30T21:10:03;101700.69;;;6.16;100.00
21100;BME280;10708;50.824;4.408;2023-01-30T21:15:08;101704.16;;;6.10;100.00
21100;BME280;10708;50.824;4.408;2023-01-30T21:20:11;101711.13;;;5.99;100.00
21100;BME280;10708;50.824;4.408;2023-01-30T21:25:13;101714.59;;;5.87;100.00
21100;BME280;10708;50.824;4.408;2023-01-30T21:30:17;101704.09;;;5.78;100.00
21100;BME280;10708;50.824;4.408;2023-01-30T21:35:19;101702.31;;;5.70;100.00
21100;BME280;10708;50.824;4.408;2023-01-30T21:40:22;101708.41;;;5.63;100.00
21100;BME280;10708;50.824;4.408;2023-01-30T21:45:43;101710.16;;;5.56;100.00
21100;BME280;10708;50.824;4.408;2023-01-30T21:50:45;101709.25;;;5.48;100.00
21100;BME280;10708;50.824;4.408;2023-01-30T21:55:49;101712.69;;;5.41;100.00
21100;BME280;10708;50.824;4.408;2023-01-30T22:00:53;101705.72;;;5.35;100.00
21100;BME280;10708;50.824;4.408;2023-01-30T22:05:55;101706.56;;;5.27;100.00
21100;BME280;10708;50.824;4.408;2023-01-30T22:11:08;101707.38;;;5.19;100.00
21100;BME280;10708;50.824;4.408;2023-01-30T22:16:15;101696.94;;;5.15;100.00
21100;BME280;10708;50.824;4.408;2023-01-30T22:21:19;101706.47;;;5.11;100.00
21100;BME280;10708;50.824;4.408;2023-01-30T22:26:23;101706.47;;;5.10;100.00
21100;BME280;10708;50.824;4.408;2023-01-30T22:31:31;101697.75;;;5.09;100.00
21100;BME280;10708;50.824;4.408;2023-01-30T22:36:34;101702.97;;;5.09;100.00
21100;BME280;10708;50.824;4.408;2023-01-30T22:41:37;101705.59;;;5.09;100.00
21100;BME280;10708;50.824;4.408;2023-01-30T22:46:41;101700.41;;;5.14;100.00
21100;BME280;10708;50.824;4.408;2023-01-30T22:51:43;101703.91;;;5.22;100.00
21100;BME280;10708;50.824;4.408;2023-01-30T22:56:47;101696.97;;;5.27;100.00
21100;BME280;10708;50.824;4.408;2023-01-30T23:01:51;101701.34;;;5.28;100.00
21100;BME280;10708;50.824;4.408;2023-01-30T23:06:54;101703.94;;;5.31;100.00
21100;BME280;10708;50.824;4.408;2023-01-30T23:11:56;101701.38;;;5.36;100.00
21100;BME280;10708;50.824;4.408;2023-01-30T23:17:17;101699.63;;;5.41;100.00
21100;BME280;10708;50.824;4.408;2023-01-30T23:22:37;101683.94;;;5.39;100.00
21100;BME280;10708;50.824;4.408;2023-01-30T23:27:40;101687.44;;;5.35;100.00
21100;BME280;10708;50.824;4.408;2023-01-30T23:32:43;101681.31;;;5.27;100.00
21100;BME280;10708;50.824;4.408;2023-01-30T23:37:46;101684.78;;;5.18;100.00
21100;BME280;10708;50.824;4.408;2023-01-30T23:43:05;101684.72;;;5.08;100.00
21100;BME280;10708;50.824;4.408;2023-01-30T23:48:09;101671.59;;;4.96;100.00
21100;BME280;10708;50.824;4.408;2023-01-30T23:53:11;101667.19;;;4.86;100.00
21100;BME280;10708;50.824;4.408;2023-01-30T23:58:13;101654.09;;;4.75;100.00
